createdAt,value
2018-04-19T05:10:48.338Z,12.90
2018-04-19T05:13:25.469Z,13.00
2018-04-19T05:15:57.463Z,13.00
2018-04-19T05:18:25.483Z,13.10
2018-04-19T05:21:04.743Z,13.00
2018-04-19T05:23:33.755Z,13.10
2018-04-19T05:26:08.335Z,13.10
2018-04-19T05:28:42.059Z,13.20
2018-04-19T05:31:11.063Z,13.30
2018-04-19T05:33:46.375Z,13.50
2018-04-19T05:36:14.399Z,13.70
2018-04-19T05:38:43.391Z,13.90
2018-04-19T05:41:11.391Z,14.00
2018-04-19T05:43:42.740Z,14.10
2018-04-19T05:46:10.767Z,14.20
2018-04-19T05:48:39.747Z,14.40
2018-04-19T05:51:09.827Z,14.50
2018-04-19T05:53:38.555Z,14.60
2018-04-19T05:56:11.030Z,14.80
2018-04-19T05:58:45.607Z,14.90
2018-04-19T06:01:17.936Z,15.00
2018-04-19T06:03:52.358Z,15.10
2018-04-19T06:06:21.343Z,15.30
2018-04-19T06:08:53.126Z,15.40
2018-04-19T06:11:23.399Z,15.70
2018-04-19T06:13:51.382Z,15.70
2018-04-19T06:16:20.370Z,15.90
2018-04-19T06:18:56.743Z,16.00
2018-04-19T06:21:25.710Z,16.10
2018-04-19T06:23:53.718Z,16.20
2018-04-19T06:26:25.071Z,16.30
2018-04-19T06:28:58.830Z,16.40
2018-04-19T06:31:38.286Z,16.50
2018-04-19T06:34:08.306Z,16.60
2018-04-19T06:36:36.306Z,16.80
2018-04-19T06:39:09.778Z,17.00
2018-04-19T06:41:45.178Z,16.90
2018-04-19T06:44:14.225Z,17.00
2018-04-19T06:46:42.234Z,17.10
2018-04-19T06:49:13.342Z,17.10
2018-04-19T06:52:05.202Z,17.20
2018-04-19T06:54:38.738Z,17.30
2018-04-19T06:57:09.690Z,17.40
2018-04-19T06:59:42.363Z,17.60
2018-04-19T07:02:11.366Z,17.80
2018-04-19T07:04:52.038Z,17.90
2018-04-19T07:07:33.776Z,18.00
2018-04-19T07:10:12.594Z,18.20
2018-04-19T07:12:42.547Z,18.20
2018-04-19T07:15:10.550Z,18.30
2018-04-19T07:17:41.230Z,18.70
2018-04-19T07:20:09.231Z,18.60
2018-04-19T07:22:38.180Z,18.80
2018-04-19T07:25:06.194Z,18.90
2018-04-19T07:27:35.113Z,19.00
2018-04-19T07:30:05.894Z,19.30
2018-04-19T07:32:33.894Z,19.30
2018-04-19T07:35:05.582Z,19.50
2018-04-19T07:37:39.187Z,19.70
2018-04-19T07:40:07.514Z,19.80
2018-04-19T07:42:35.494Z,20.10
2018-04-19T07:45:04.402Z,20.30
2018-04-19T07:47:37.153Z,20.40
2018-04-19T07:50:08.894Z,20.40
2018-04-19T07:52:37.905Z,20.60
2018-04-19T07:55:06.886Z,20.70
2018-04-19T07:57:34.922Z,20.80
2018-04-19T08:00:07.166Z,21.00
2018-04-19T08:02:40.910Z,21.10
2018-04-19T08:05:14.468Z,21.40
2018-04-19T08:07:50.878Z,21.80
2018-04-19T08:10:18.914Z,21.80
2018-04-19T08:12:50.707Z,22.00
2018-04-19T08:15:19.521Z,22.20
2018-04-19T08:17:47.518Z,22.20
2018-04-19T08:20:18.234Z,22.70
2018-04-19T08:22:52.741Z,22.90
2018-04-19T08:25:20.737Z,22.90
2018-04-19T08:27:57.258Z,23.10
2018-04-19T08:30:25.258Z,23.00
2018-04-19T08:32:55.265Z,22.80
2018-04-19T08:35:30.894Z,22.90
2018-04-19T08:37:58.898Z,23.10
2018-04-19T08:40:27.854Z,23.20
2018-04-19T08:42:59.510Z,23.70
2018-04-19T08:45:27.514Z,23.70
2018-04-19T08:47:55.525Z,23.60
2018-04-19T08:50:23.534Z,23.40
2018-04-19T08:53:09.661Z,23.30
2018-04-19T08:55:40.362Z,23.90
2018-04-19T08:58:08.357Z,23.90
2018-04-19T09:00:36.385Z,23.70
2018-04-19T09:03:08.138Z,23.60
2018-04-19T09:05:36.130Z,23.80
2018-04-19T09:08:04.142Z,23.90
2018-04-19T09:10:34.921Z,24.50
2018-04-19T09:13:05.597Z,25.00
2018-04-19T09:15:37.518Z,25.20
2018-04-19T09:18:06.498Z,25.20
2018-04-19T09:20:34.498Z,25.70
2018-04-19T09:23:02.526Z,25.90
2018-04-19T09:25:33.354Z,25.90
2018-04-19T09:28:03.290Z,25.90
2018-04-19T09:30:34.082Z,26.10
2018-04-19T09:33:03.915Z,27.00
2018-04-19T09:35:36.262Z,27.20
2018-04-19T09:38:08.037Z,27.80
2018-04-19T09:40:36.993Z,27.70
2018-04-19T09:43:04.998Z,28.60
2018-04-19T09:45:33.042Z,28.40
2018-04-19T09:48:07.145Z,27.90
2018-04-19T09:50:37.848Z,28.00
2018-04-19T09:53:12.393Z,28.00
2018-04-19T09:55:47.916Z,27.70
2018-04-19T09:58:16.916Z,28.20
2018-04-19T10:00:56.340Z,27.40
2018-04-19T10:03:24.340Z,27.30
2018-04-19T10:05:58.996Z,27.60
2018-04-19T10:08:27.916Z,27.80
2018-04-19T10:10:55.944Z,27.90
2018-04-19T10:13:24.716Z,28.30
2018-04-19T10:15:53.540Z,28.90
2018-04-19T10:18:21.505Z,28.80
2018-04-19T10:20:59.308Z,29.40
2018-04-19T10:23:27.316Z,29.80
2018-04-19T10:26:03.505Z,30.00
2018-04-19T10:28:36.862Z,30.00
2018-04-19T10:31:07.642Z,30.20
2018-04-19T10:33:41.550Z,30.10
2018-04-19T10:36:10.317Z,30.90
2018-04-19T10:38:38.333Z,30.80
2018-04-19T10:41:07.098Z,31.00
2018-04-19T10:43:35.893Z,30.40
2018-04-19T10:46:07.106Z,30.40
2018-04-19T10:48:47.494Z,30.10
2018-04-19T10:51:16.313Z,31.70
2018-04-19T10:53:44.366Z,31.70
2018-04-19T10:56:12.381Z,32.60
2018-04-19T10:58:44.429Z,32.20
2018-04-19T11:01:19.061Z,31.50
2018-04-19T11:03:47.989Z,32.40
2018-04-19T11:06:16.754Z,33.90
2018-04-19T11:08:46.660Z,33.80
2018-04-19T11:11:14.652Z,34.70
2018-04-19T11:13:44.448Z,33.60
2018-04-19T11:16:14.476Z,33.50
2018-04-19T11:18:42.512Z,33.50
2018-04-19T11:21:11.500Z,33.20
2018-04-19T11:23:39.536Z,33.10
2018-04-19T11:26:07.556Z,33.20
2018-04-19T11:28:39.420Z,33.40
2018-04-19T11:31:07.423Z,33.00
2018-04-19T11:33:44.535Z,34.30
2018-04-19T11:36:14.459Z,34.30
2018-04-19T11:38:43.467Z,35.20
2018-04-19T11:41:16.539Z,36.10
2018-04-19T11:43:48.427Z,34.70
2018-04-19T11:46:36.339Z,34.60
2018-04-19T11:49:06.259Z,34.90
2018-04-19T11:51:34.255Z,36.50
2018-04-19T11:54:02.287Z,36.90
2018-04-19T11:56:34.052Z,36.90
2018-04-19T11:59:03.109Z,36.90
2018-04-19T12:01:31.079Z,36.10
2018-04-19T12:04:05.213Z,33.80
2018-04-19T12:06:35.120Z,33.80
2018-04-19T12:09:03.208Z,33.10
2018-04-19T12:11:31.233Z,32.80
2018-04-19T12:14:04.545Z,31.80
2018-04-19T12:16:32.569Z,31.80
2018-04-19T12:19:05.965Z,32.70
2018-04-19T12:21:37.697Z,33.60
2018-04-19T12:24:05.721Z,33.40
2018-04-19T12:26:35.473Z,33.10
2018-04-19T12:29:06.697Z,33.00
2018-04-19T12:31:35.628Z,32.90
2018-04-19T12:34:04.543Z,33.80
2018-04-19T12:36:33.445Z,34.20
2018-04-19T12:39:01.441Z,33.60
2018-04-19T12:41:29.428Z,34.20
2018-04-19T12:43:58.341Z,34.30
2018-04-19T12:46:27.241Z,35.00
2018-04-19T12:49:01.825Z,33.60
2018-04-19T12:51:29.817Z,33.00
2018-04-19T12:53:57.824Z,34.20
2018-04-19T12:56:27.509Z,35.50
2018-04-19T12:58:57.493Z,35.40
2018-04-19T13:01:35.484Z,34.50
2018-04-19T13:04:04.401Z,33.90
2018-04-19T13:06:37.617Z,33.50
2018-04-19T13:09:05.600Z,33.00
2018-04-19T13:11:37.954Z,32.90
2018-04-19T13:14:05.961Z,32.90
2018-04-19T13:16:38.480Z,33.60
2018-04-19T13:19:06.474Z,34.50
2018-04-19T13:21:34.488Z,35.20
2018-04-19T13:24:04.214Z,33.80
2018-04-19T13:26:32.216Z,33.70
2018-04-19T13:29:05.389Z,34.30
2018-04-19T13:31:37.132Z,34.50
2018-04-19T13:34:05.148Z,34.50
2018-04-19T13:36:53.403Z,33.50
2018-04-19T13:39:23.183Z,33.60
2018-04-19T13:41:52.148Z,33.60
2018-04-19T13:44:23.512Z,33.40
2018-04-19T13:46:52.488Z,33.50
2018-04-19T13:49:20.484Z,33.70
2018-04-19T13:51:49.408Z,34.00
2018-04-19T13:54:21.212Z,35.20
2018-04-19T13:56:52.980Z,35.10
2018-04-19T13:59:25.557Z,35.00
2018-04-19T14:01:54.346Z,33.80
2018-04-19T14:04:22.336Z,33.70
2018-04-19T14:06:52.312Z,33.90
2018-04-19T14:09:27.336Z,34.60
2018-04-19T14:11:55.357Z,34.40
2018-04-19T14:14:31.681Z,33.40
2018-04-19T14:17:04.633Z,33.40
2018-04-19T14:19:39.360Z,32.60
2018-04-19T14:22:16.148Z,33.80
2018-04-19T14:24:44.169Z,33.80
2018-04-19T14:27:12.176Z,33.10
2018-04-19T14:29:40.176Z,33.20
2018-04-19T14:32:14.388Z,33.10
2018-04-19T14:34:44.056Z,35.20
2018-04-19T14:37:13.777Z,34.70
2018-04-19T14:39:44.016Z,34.70
2018-04-19T14:42:31.728Z,33.80
2018-04-19T14:44:59.748Z,33.70
2018-04-19T14:47:27.740Z,34.70
2018-04-19T14:49:58.959Z,34.40
2018-04-19T14:52:33.444Z,34.00
2018-04-19T14:55:01.476Z,33.60
2018-04-19T14:57:35.112Z,33.50
2018-04-19T15:00:05.085Z,33.90
2018-04-19T15:02:33.068Z,33.20
2018-04-19T15:05:05.216Z,31.50
2018-04-19T15:07:34.204Z,31.40
2018-04-19T15:10:04.108Z,32.00
2018-04-19T15:12:32.168Z,31.50
2018-04-19T15:15:04.244Z,31.60
2018-04-19T15:17:32.271Z,32.90
2018-04-19T15:20:00.342Z,33.80
2018-04-19T15:22:30.300Z,33.30
2018-04-19T15:24:58.847Z,33.30
2018-04-19T15:27:27.836Z,32.90
2018-04-19T15:29:55.832Z,32.70
2018-04-19T15:32:23.871Z,33.40
2018-04-19T15:34:56.884Z,33.50
2018-04-19T15:37:24.916Z,33.50
2018-04-19T15:39:52.921Z,33.70
2018-04-19T15:42:32.096Z,33.20
2018-04-19T15:45:03.195Z,33.20
2018-04-19T15:47:31.219Z,33.40
2018-04-19T15:50:04.697Z,34.20
2018-04-19T15:52:36.539Z,34.20
2018-04-19T15:55:04.568Z,34.30
2018-04-19T15:57:32.539Z,33.60
2018-04-19T16:00:01.509Z,32.40
2018-04-19T16:02:31.179Z,31.20
2018-04-19T16:05:00.209Z,31.10
2018-04-19T16:07:28.168Z,31.00
2018-04-19T16:09:56.932Z,30.00
2018-04-19T16:12:25.916Z,30.00
2018-04-19T16:14:53.944Z,29.50
2018-04-19T16:17:26.244Z,28.90
2018-04-19T16:19:54.264Z,28.70
2018-04-19T16:22:24.028Z,29.00
2018-04-19T16:24:58.068Z,29.00
2018-04-19T16:27:26.080Z,28.90
2018-04-19T16:29:54.999Z,28.80
2018-04-19T16:32:29.558Z,28.50
2018-04-19T16:35:03.890Z,27.80
2018-04-19T16:37:39.549Z,27.50
2018-04-19T16:40:08.481Z,27.50
2018-04-19T16:42:47.277Z,27.50
2018-04-19T16:45:17.201Z,27.60
2018-04-19T16:47:45.213Z,27.60
2018-04-19T16:50:19.262Z,27.10
2018-04-19T16:52:47.884Z,27.10
2018-04-19T16:55:15.939Z,27.30
2018-04-19T16:57:47.533Z,27.50
2018-04-19T17:00:16.436Z,27.40
2018-04-19T17:02:45.259Z,27.00
2018-04-19T17:05:14.000Z,26.50
2018-04-19T17:07:47.264Z,26.30
2018-04-19T17:10:20.944Z,26.30
2018-04-19T17:12:50.885Z,26.10
2018-04-19T17:15:24.684Z,26.00
2018-04-19T17:17:52.704Z,25.90
2018-04-19T17:20:22.661Z,25.90
2018-04-19T17:23:02.934Z,26.00
2018-04-19T17:25:31.920Z,25.90
2018-04-19T17:28:04.621Z,25.70
2018-04-19T17:30:32.625Z,25.60
2018-04-19T17:33:05.057Z,25.10
2018-04-19T17:35:44.389Z,25.00
2018-04-19T17:38:12.398Z,24.70
2018-04-19T17:40:45.050Z,24.30
2018-04-19T17:43:16.898Z,24.20
2018-04-19T17:45:46.857Z,24.00
2018-04-19T17:48:17.697Z,23.40
2018-04-19T17:50:46.665Z,23.40
2018-04-19T17:53:21.161Z,22.90
2018-04-19T17:55:49.157Z,22.90
2018-04-19T17:58:17.156Z,22.60
2018-04-19T18:00:45.171Z,22.30
2018-04-19T18:03:34.173Z,22.00
2018-04-19T18:06:03.124Z,21.70
2018-04-19T18:08:32.088Z,21.30
2018-04-19T18:11:00.516Z,21.00
2018-04-19T18:13:34.973Z,20.40
2018-04-19T18:16:03.019Z,20.40
2018-04-19T18:18:31.780Z,20.00
2018-04-19T18:20:59.865Z,19.90
2018-04-19T18:23:32.300Z,19.80
2018-04-19T18:26:06.825Z,19.70
2018-04-19T18:28:34.844Z,19.60
2018-04-19T18:31:02.901Z,19.50
2018-04-19T18:33:35.673Z,19.30
2018-04-19T18:36:04.444Z,19.20
2018-04-19T18:38:32.448Z,19.20
2018-04-19T18:41:01.225Z,19.00
2018-04-19T18:43:33.525Z,18.90
2018-04-19T18:46:02.425Z,18.90
2018-04-19T18:48:30.438Z,18.80
2018-04-19T18:51:02.082Z,18.70
2018-04-19T18:53:31.080Z,18.70
2018-04-19T18:55:59.083Z,18.80
2018-04-19T18:58:27.875Z,18.70
2018-04-19T19:00:55.898Z,18.60
2018-04-19T19:03:29.102Z,18.60
2018-04-19T19:06:02.774Z,18.40
2018-04-19T19:08:30.791Z,18.30
2018-04-19T19:10:59.573Z,18.10
2018-04-19T19:13:34.678Z,18.10
2018-04-19T19:16:10.357Z,18.10
2018-04-19T19:18:54.592Z,18.00
2018-04-19T19:21:29.798Z,17.90
2018-04-19T19:24:02.055Z,17.80
2018-04-19T19:26:30.954Z,17.80
2018-04-19T19:29:02.531Z,17.90
2018-04-19T19:31:31.519Z,17.80
2018-04-19T19:33:59.530Z,17.80
2018-04-19T19:36:29.325Z,17.60
2018-04-19T19:38:58.210Z,17.60
2018-04-19T19:41:28.997Z,17.50
2018-04-19T19:43:58.029Z,17.40
2018-04-19T19:46:26.093Z,17.40
2018-04-19T19:48:54.101Z,17.30
2018-04-19T19:51:24.913Z,17.20
2018-04-19T19:53:53.044Z,17.10
2018-04-19T19:56:21.990Z,17.10
2018-04-19T19:58:50.014Z,17.10
2018-04-19T20:01:21.053Z,17.10
2018-04-19T20:03:49.078Z,17.10
2018-04-19T20:06:17.854Z,16.90
2018-04-19T20:08:45.850Z,16.90
2018-04-19T20:11:14.794Z,16.90
2018-04-19T20:13:43.782Z,16.80
2018-04-19T20:16:13.707Z,16.80
2018-04-19T20:18:42.618Z,16.80
2018-04-19T20:21:14.967Z,17.00
2018-04-19T20:23:44.075Z,17.00
2018-04-19T20:26:12.966Z,17.10
2018-04-19T20:28:44.426Z,17.20
2018-04-19T20:31:13.210Z,17.10
2018-04-19T20:33:42.024Z,17.00
2018-04-19T20:36:10.042Z,17.00
2018-04-19T20:38:41.661Z,16.90
2018-04-19T20:41:15.367Z,16.90
2018-04-19T20:43:46.917Z,16.80
2018-04-19T20:46:14.442Z,16.80
2018-04-19T20:48:43.273Z,16.90
2018-04-19T20:51:16.281Z,16.90
2018-04-19T20:53:45.349Z,16.90
2018-04-19T20:56:14.149Z,16.80
2018-04-19T20:58:45.257Z,16.80
2018-04-19T21:01:15.009Z,16.70
2018-04-19T21:03:51.480Z,16.70
2018-04-19T21:06:19.523Z,16.70
2018-04-19T21:08:53.901Z,16.60
2018-04-19T21:11:24.633Z,16.70
2018-04-19T21:13:56.960Z,16.60
2018-04-19T21:16:28.689Z,16.80
2018-04-19T21:18:57.633Z,16.90
2018-04-19T21:21:25.681Z,16.90
2018-04-19T21:23:53.702Z,16.90
2018-04-19T21:26:24.435Z,17.00
2018-04-19T21:28:53.221Z,17.00
2018-04-19T21:31:27.113Z,16.90
2018-04-19T21:33:55.145Z,16.90
2018-04-19T21:36:24.197Z,16.90
2018-04-19T21:38:53.989Z,16.70
2018-04-19T21:41:22.042Z,16.70
2018-04-19T21:43:52.047Z,16.70
2018-04-19T21:46:21.987Z,16.60
2018-04-19T21:48:50.050Z,16.60
2018-04-19T21:51:21.382Z,16.60
2018-04-19T21:53:49.457Z,16.60
2018-04-19T21:56:21.866Z,16.60
2018-04-19T21:58:53.582Z,16.50
2018-04-19T22:01:22.609Z,16.50
2018-04-19T22:04:03.545Z,16.50
2018-04-19T22:06:32.550Z,16.50
2018-04-19T22:09:00.558Z,16.50
2018-04-19T22:11:31.397Z,16.40
2018-04-19T22:13:59.459Z,16.40
2018-04-19T22:16:28.245Z,16.30
2018-04-19T22:18:58.050Z,16.20
2018-04-19T22:21:27.011Z,16.20
2018-04-19T22:23:55.993Z,16.10
2018-04-19T22:26:29.299Z,15.80
2018-04-19T22:28:59.309Z,15.50
2018-04-19T22:31:27.334Z,15.10
2018-04-19T22:33:55.349Z,14.80
2018-04-19T22:36:23.386Z,14.70
2018-04-19T22:38:57.732Z,14.50
2018-04-19T22:41:25.737Z,14.40
2018-04-19T22:43:54.518Z,14.40
2018-04-19T22:46:24.558Z,14.40
2018-04-19T22:48:52.573Z,14.50
2018-04-19T22:51:23.889Z,14.60
2018-04-19T22:53:56.501Z,14.50
2018-04-19T22:56:26.533Z,14.40
2018-04-19T22:59:05.837Z,14.40
2018-04-19T23:01:35.795Z,14.30
2018-04-19T23:04:04.782Z,14.20
2018-04-19T23:06:32.797Z,14.10
2018-04-19T23:09:01.745Z,14.10
2018-04-19T23:11:29.757Z,14.10
2018-04-19T23:13:59.702Z,14.00
2018-04-19T23:16:32.281Z,14.00
2018-04-19T23:19:05.985Z,14.10
2018-04-19T23:21:37.941Z,14.10
2018-04-19T23:24:08.005Z,14.10
2018-04-19T23:26:38.689Z,14.10
2018-04-19T23:29:10.681Z,14.10
2018-04-19T23:31:39.673Z,14.10
2018-04-19T23:34:13.538Z,14.10
2018-04-19T23:36:44.717Z,14.00
2018-04-19T23:39:13.729Z,14.00
2018-04-19T23:41:44.452Z,14.10
2018-04-19T23:44:16.009Z,14.10
2018-04-19T23:46:49.684Z,14.20
2018-04-19T23:49:21.548Z,14.20
2018-04-19T23:51:49.581Z,14.20
2018-04-19T23:54:17.608Z,14.20
2018-04-19T23:56:48.300Z,14.10
2018-04-19T23:59:17.247Z,14.00
